Hondarribia Gipuzkoa

latitud = 43° 21' 38''N | longitud = 001° 47' 14''W
4 metros sobre el nivel del mar | datos mensuales

Fecha, hora, temperatura, viento dirección y velocidad, humedad y presión.

  • 22-11-2017 09:00:00 | 15.60°C | Sudeste |24.00 km/h | 37.00% | 1011.20 hPa
  • 22-11-2017 08:00:00 | 11.80°C | Sur |18.00 km/h | 50.00% | 1011.10 hPa
  • 22-11-2017 07:00:00 | 7.10°C | Sur |10.00 km/h | 75.00% | 1011.50 hPa
  • 22-11-2017 06:00:00 | 6.60°C | Sur |6.00 km/h | 74.00% | 1012.00 hPa
  • 22-11-2017 05:00:00 | 8.20°C | Sudoeste |5.00 km/h | 65.00% | 1012.80 hPa
  • 22-11-2017 04:00:00 | 9.10°C | Sudoeste |5.00 km/h | 62.00% | 1013.30 hPa
  • 22-11-2017 03:00:00 | 7.40°C | Sudoeste |6.00 km/h | 72.00% | 1014.10 hPa
  • 22-11-2017 02:00:00 | 6.70°C | Sur |13.00 km/h | 80.00% | 1014.20 hPa
  • 22-11-2017 01:00:00 | 5.20°C | Sudoeste |8.00 km/h | 90.00% | 1015.30 hPa
  • 22-11-2017 00:00:00 | 6.40°C | Sudoeste |3.00 km/h | 91.00% | 1015.80 hPa
  • 21-11-2017 23:00:00 | 6.80°C | Sudoeste |4.00 km/h | 91.00% | 1016.00 hPa
  • 21-11-2017 22:00:00 | 7.10°C | Sur |7.00 km/h | 89.00% | 1016.20 hPa
  • 21-11-2017 21:00:00 | 7.80°C | Sur |6.00 km/h | 88.00% | 1016.30 hPa
  • 21-11-2017 20:00:00 | 8.90°C | Sudoeste |6.00 km/h | 84.00% | 1016.90 hPa
  • 21-11-2017 19:00:00 | 10.00°C | Sur |6.00 km/h | 78.00% | 1017.10 hPa
  • 21-11-2017 18:00:00 | 12.90°C | Sur |6.00 km/h | 67.00% | 1017.30 hPa
  • 21-11-2017 17:00:00 | 16.50°C | Norte |5.00 km/h | 58.00% | 1017.40 hPa
  • 21-11-2017 16:00:00 | 18.10°C | Norte |12.00 km/h | 56.00% | 1017.50 hPa
  • 21-11-2017 15:00:00 | 17.80°C | Norte |8.00 km/h | 66.00% | 1018.00 hPa
  • 21-11-2017 14:00:00 | 19.20°C | Norte |4.00 km/h | 43.00% | 1018.60 hPa
  • 21-11-2017 13:00:00 | 17.70°C | Calma |0.00 km/h | 50.00% | 1019.30 hPa
  • 21-11-2017 12:00:00 | 15.10°C | Sur |4.00 km/h | 57.00% | 1020.40 hPa
  • 21-11-2017 11:00:00 | 12.10°C | Sur |6.00 km/h | 69.00% | 1020.80 hPa
  • 21-11-2017 10:00:00 | 9.00°C | Sur |7.00 km/h | 80.00% | 1020.80 hPa